sensor_id;sensor_type;location;lat;lon;timestamp;P1;durP1;ratioP1;P2;durP2;ratioP2
58208;SDS011;44006;52.028;4.696;2023-05-21T00:01:01;4.60;;;3.20;;
58208;SDS011;44006;52.028;4.696;2023-05-21T00:03:27;6.50;;;3.53;;
58208;SDS011;44006;52.028;4.696;2023-05-21T00:05:54;6.55;;;3.10;;
58208;SDS011;44006;52.028;4.696;2023-05-21T00:08:19;4.88;;;3.20;;
58208;SDS011;44006;52.028;4.696;2023-05-21T00:10:45;4.85;;;3.30;;
58208;SDS011;44006;52.028;4.696;2023-05-21T00:13:10;7.22;;;3.47;;
58208;SDS011;44006;52.028;4.696;2023-05-21T00:15:35;7.47;;;3.05;;
58208;SDS011;44006;52.028;4.696;2023-05-21T00:18:00;6.28;;;3.58;;
58208;SDS011;44006;52.028;4.696;2023-05-21T00:20:26;5.20;;;3.10;;
58208;SDS011;44006;52.028;4.696;2023-05-21T00:22:53;6.75;;;3.30;;
58208;SDS011;44006;52.028;4.696;2023-05-21T00:25:18;4.77;;;3.23;;
58208;SDS011;44006;52.028;4.696;2023-05-21T00:27:43;4.50;;;3.22;;
58208;SDS011;44006;52.028;4.696;2023-05-21T00:30:08;5.13;;;3.30;;
58208;SDS011;44006;52.028;4.696;2023-05-21T00:32:34;5.38;;;3.45;;
58208;SDS011;44006;52.028;4.696;2023-05-21T00:34:59;5.53;;;4.10;;
58208;SDS011;44006;52.028;4.696;2023-05-21T00:37:24;5.13;;;3.33;;
58208;SDS011;44006;52.028;4.696;2023-05-21T00:39:49;4.30;;;3.28;;
58208;SDS011;44006;52.028;4.696;2023-05-21T00:42:15;5.50;;;3.40;;
58208;SDS011;44006;52.028;4.696;2023-05-21T00:44:42;9.20;;;3.70;;
58208;SDS011;44006;52.028;4.696;2023-05-21T00:47:07;6.22;;;3.53;;
58208;SDS011;44006;52.028;4.696;2023-05-21T00:49:33;5.93;;;3.30;;
58208;SDS011;44006;52.028;4.696;2023-05-21T00:51:59;5.53;;;3.33;;
58208;SDS011;44006;52.028;4.696;2023-05-21T00:54:25;5.47;;;3.17;;
58208;SDS011;44006;52.028;4.696;2023-05-21T00:56:50;5.68;;;3.40;;
58208;SDS011;44006;52.028;4.696;2023-05-21T00:59:16;6.00;;;3.23;;
58208;SDS011;44006;52.028;4.696;2023-05-21T01:01:43;4.60;;;3.30;;
58208;SDS011;44006;52.028;4.696;2023-05-21T01:04:09;4.65;;;3.35;;
58208;SDS011;44006;52.028;4.696;2023-05-21T01:06:34;4.72;;;3.30;;
58208;SDS011;44006;52.028;4.696;2023-05-21T01:09:00;5.45;;;3.40;;
58208;SDS011;44006;52.028;4.696;2023-05-21T01:11:45;8.88;;;3.88;;
58208;SDS011;44006;52.028;4.696;2023-05-21T01:14:11;5.20;;;3.70;;
58208;SDS011;44006;52.028;4.696;2023-05-21T01:16:37;7.88;;;3.80;;
58208;SDS011;44006;52.028;4.696;2023-05-21T01:19:03;6.10;;;3.83;;
58208;SDS011;44006;52.028;4.696;2023-05-21T01:21:29;8.80;;;3.97;;
58208;SDS011;44006;52.028;4.696;2023-05-21T01:23:55;6.85;;;3.53;;
58208;SDS011;44006;52.028;4.696;2023-05-21T01:26:20;6.55;;;3.85;;
58208;SDS011;44006;52.028;4.696;2023-05-21T01:28:45;6.95;;;4.00;;
58208;SDS011;44006;52.028;4.696;2023-05-21T01:31:17;6.83;;;4.30;;
58208;SDS011;44006;52.028;4.696;2023-05-21T01:33:46;6.75;;;3.42;;
58208;SDS011;44006;52.028;4.696;2023-05-21T01:36:31;8.25;;;4.22;;
58208;SDS011;44006;52.028;4.696;2023-05-21T01:41:23;6.00;;;3.83;;
58208;SDS011;44006;52.028;4.696;2023-05-21T01:43:50;5.65;;;3.60;;
58208;SDS011;44006;52.028;4.696;2023-05-21T01:46:16;6.78;;;4.00;;
58208;SDS011;44006;52.028;4.696;2023-05-21T01:48:43;5.38;;;3.58;;
58208;SDS011;44006;52.028;4.696;2023-05-21T01:51:09;7.65;;;4.03;;
58208;SDS011;44006;52.028;4.696;2023-05-21T01:53:34;8.00;;;3.85;;
58208;SDS011;44006;52.028;4.696;2023-05-21T01:55:59;5.53;;;3.70;;
58208;SDS011;44006;52.028;4.696;2023-05-21T01:58:26;6.35;;;4.03;;
58208;SDS011;44006;52.028;4.696;2023-05-21T02:00:52;8.95;;;4.45;;
58208;SDS011;44006;52.028;4.696;2023-05-21T02:03:17;5.67;;;3.93;;
58208;SDS011;44006;52.028;4.696;2023-05-21T02:05:43;6.10;;;3.70;;
58208;SDS011;44006;52.028;4.696;2023-05-21T02:08:08;6.33;;;4.07;;
58208;SDS011;44006;52.028;4.696;2023-05-21T02:10:34;6.65;;;4.18;;
58208;SDS011;44006;52.028;4.696;2023-05-21T02:12:59;5.82;;;4.00;;
58208;SDS011;44006;52.028;4.696;2023-05-21T02:15:25;6.20;;;3.65;;
58208;SDS011;44006;52.028;4.696;2023-05-21T02:17:50;5.55;;;4.07;;
58208;SDS011;44006;52.028;4.696;2023-05-21T02:20:15;6.53;;;3.90;;
58208;SDS011;44006;52.028;4.696;2023-05-21T02:22:42;6.25;;;4.22;;
58208;SDS011;44006;52.028;4.696;2023-05-21T02:25:08;7.38;;;4.13;;
58208;SDS011;44006;52.028;4.696;2023-05-21T02:27:34;7.10;;;4.35;;
58208;SDS011;44006;52.028;4.696;2023-05-21T02:30:01;8.48;;;4.15;;
58208;SDS011;44006;52.028;4.696;2023-05-21T02:32:26;6.32;;;4.22;;
58208;SDS011;44006;52.028;4.696;2023-05-21T02:34:51;6.80;;;4.30;;
58208;SDS011;44006;52.028;4.696;2023-05-21T02:37:17;8.07;;;4.27;;
58208;SDS011;44006;52.028;4.696;2023-05-21T02:39:43;6.70;;;4.30;;
58208;SDS011;44006;52.028;4.696;2023-05-21T02:42:09;6.45;;;3.85;;
58208;SDS011;44006;52.028;4.696;2023-05-21T02:44:34;5.82;;;3.63;;
58208;SDS011;44006;52.028;4.696;2023-05-21T02:46:59;7.40;;;4.20;;
58208;SDS011;44006;52.028;4.696;2023-05-21T02:49:24;8.63;;;4.05;;
58208;SDS011;44006;52.028;4.696;2023-05-21T02:51:50;7.87;;;4.60;;
58208;SDS011;44006;52.028;4.696;2023-05-21T02:54:15;6.47;;;3.97;;
58208;SDS011;44006;52.028;4.696;2023-05-21T02:56:40;6.93;;;4.20;;
58208;SDS011;44006;52.028;4.696;2023-05-21T02:59:05;8.23;;;4.77;;
58208;SDS011;44006;52.028;4.696;2023-05-21T03:01:30;6.68;;;4.57;;
58208;SDS011;44006;52.028;4.696;2023-05-21T03:03:56;8.18;;;4.57;;
58208;SDS011;44006;52.028;4.696;2023-05-21T03:06:21;8.95;;;4.68;;
58208;SDS011;44006;52.028;4.696;2023-05-21T03:08:46;7.85;;;4.72;;
58208;SDS011;44006;52.028;4.696;2023-05-21T03:11:11;6.23;;;4.60;;
58208;SDS011;44006;52.028;4.696;2023-05-21T03:13:37;7.65;;;4.45;;
58208;SDS011;44006;52.028;4.696;2023-05-21T03:16:02;6.57;;;4.60;;
58208;SDS011;44006;52.028;4.696;2023-05-21T03:18:27;7.38;;;4.93;;
58208;SDS011;44006;52.028;4.696;2023-05-21T03:20:53;6.38;;;4.32;;
58208;SDS011;44006;52.028;4.696;2023-05-21T03:23:18;6.53;;;4.15;;
58208;SDS011;44006;52.028;4.696;2023-05-21T03:25:43;7.13;;;4.70;;
58208;SDS011;44006;52.028;4.696;2023-05-21T03:28:09;6.07;;;4.45;;
58208;SDS011;44006;52.028;4.696;2023-05-21T03:30:35;7.57;;;4.70;;
58208;SDS011;44006;52.028;4.696;2023-05-21T03:33:02;8.30;;;4.80;;
58208;SDS011;44006;52.028;4.696;2023-05-21T03:35:27;8.55;;;4.57;;
58208;SDS011;44006;52.028;4.696;2023-05-21T03:37:52;6.80;;;5.03;;
58208;SDS011;44006;52.028;4.696;2023-05-21T03:40:19;9.57;;;4.90;;
58208;SDS011;44006;52.028;4.696;2023-05-21T03:42:45;5.53;;;4.50;;
58208;SDS011;44006;52.028;4.696;2023-05-21T03:45:10;10.33;;;5.77;;
58208;SDS011;44006;52.028;4.696;2023-05-21T03:47:36;6.90;;;5.00;;
58208;SDS011;44006;52.028;4.696;2023-05-21T03:50:01;6.53;;;4.78;;
58208;SDS011;44006;52.028;4.696;2023-05-21T03:52:26;7.03;;;4.35;;
58208;SDS011;44006;52.028;4.696;2023-05-21T03:54:52;6.43;;;4.67;;
58208;SDS011;44006;52.028;4.696;2023-05-21T03:57:17;8.97;;;5.10;;
58208;SDS011;44006;52.028;4.696;2023-05-21T03:59:42;8.88;;;5.05;;
58208;SDS011;44006;52.028;4.696;2023-05-21T04:02:07;6.13;;;4.83;;
58208;SDS011;44006;52.028;4.696;2023-05-21T04:04:32;7.22;;;4.95;;
58208;SDS011;44006;52.028;4.696;2023-05-21T04:06:58;8.10;;;5.20;;
58208;SDS011;44006;52.028;4.696;2023-05-21T04:09:23;8.82;;;5.38;;
58208;SDS011;44006;52.028;4.696;2023-05-21T04:11:48;7.13;;;4.75;;
58208;SDS011;44006;52.028;4.696;2023-05-21T04:14:13;7.40;;;4.87;;
58208;SDS011;44006;52.028;4.696;2023-05-21T04:16:39;9.10;;;5.25;;
58208;SDS011;44006;52.028;4.696;2023-05-21T04:19:07;8.15;;;5.20;;
58208;SDS011;44006;52.028;4.696;2023-05-21T04:21:33;8.98;;;5.35;;
58208;SDS011;44006;52.028;4.696;2023-05-21T04:23:58;6.97;;;5.23;;
58208;SDS011;44006;52.028;4.696;2023-05-21T04:26:24;6.15;;;4.90;;
58208;SDS011;44006;52.028;4.696;2023-05-21T04:28:50;7.78;;;5.50;;
58208;SDS011;44006;52.028;4.696;2023-05-21T04:31:15;7.03;;;4.88;;
58208;SDS011;44006;52.028;4.696;2023-05-21T04:33:40;6.15;;;4.55;;
58208;SDS011;44006;52.028;4.696;2023-05-21T04:36:06;8.18;;;5.25;;
58208;SDS011;44006;52.028;4.696;2023-05-21T04:38:33;8.00;;;5.45;;
58208;SDS011;44006;52.028;4.696;2023-05-21T04:41:01;8.25;;;5.32;;
58208;SDS011;44006;52.028;4.696;2023-05-21T04:43:28;6.72;;;4.55;;
58208;SDS011;44006;52.028;4.696;2023-05-21T04:45:53;8.45;;;5.50;;
58208;SDS011;44006;52.028;4.696;2023-05-21T04:48:19;7.93;;;5.20;;
58208;SDS011;44006;52.028;4.696;2023-05-21T04:50:44;8.07;;;6.10;;
58208;SDS011;44006;52.028;4.696;2023-05-21T04:53:10;8.17;;;5.20;;
58208;SDS011;44006;52.028;4.696;2023-05-21T04:55:35;9.48;;;5.60;;
58208;SDS011;44006;52.028;4.696;2023-05-21T04:58:04;9.48;;;6.40;;
58208;SDS011;44006;52.028;4.696;2023-05-21T05:00:30;7.72;;;5.43;;
58208;SDS011;44006;52.028;4.696;2023-05-21T05:02:56;8.23;;;5.57;;
58208;SDS011;44006;52.028;4.696;2023-05-21T05:05:21;10.07;;;5.50;;
58208;SDS011;44006;52.028;4.696;2023-05-21T05:07:46;9.53;;;5.63;;
58208;SDS011;44006;52.028;4.696;2023-05-21T05:10:12;11.65;;;6.40;;
58208;SDS011;44006;52.028;4.696;2023-05-21T05:12:37;8.45;;;5.82;;
58208;SDS011;44006;52.028;4.696;2023-05-21T05:15:02;9.57;;;5.73;;
58208;SDS011;44006;52.028;4.696;2023-05-21T05:17:27;9.80;;;5.80;;
58208;SDS011;44006;52.028;4.696;2023-05-21T05:19:53;9.23;;;5.90;;
58208;SDS011;44006;52.028;4.696;2023-05-21T05:22:18;6.85;;;5.60;;
58208;SDS011;44006;52.028;4.696;2023-05-21T05:24:43;8.60;;;6.03;;
58208;SDS011;44006;52.028;4.696;2023-05-21T05:27:08;8.43;;;5.80;;
58208;SDS011;44006;52.028;4.696;2023-05-21T05:29:33;7.53;;;5.65;;
58208;SDS011;44006;52.028;4.696;2023-05-21T05:31:59;8.20;;;5.30;;
58208;SDS011;44006;52.028;4.696;2023-05-21T05:34:24;10.68;;;6.70;;
58208;SDS011;44006;52.028;4.696;2023-05-21T05:36:49;9.75;;;5.38;;
58208;SDS011;44006;52.028;4.696;2023-05-21T05:39:14;7.03;;;5.32;;
58208;SDS011;44006;52.028;4.696;2023-05-21T05:41:40;8.27;;;5.33;;
58208;SDS011;44006;52.028;4.696;2023-05-21T05:44:05;6.37;;;5.07;;
58208;SDS011;44006;52.028;4.696;2023-05-21T05:46:30;8.90;;;5.27;;
58208;SDS011;44006;52.028;4.696;2023-05-21T05:48:55;9.80;;;5.40;;
58208;SDS011;44006;52.028;4.696;2023-05-21T05:51:20;18.07;;;5.30;;
58208;SDS011;44006;52.028;4.696;2023-05-21T05:53:46;8.70;;;5.63;;
58208;SDS011;44006;52.028;4.696;2023-05-21T05:56:12;6.72;;;5.43;;
58208;SDS011;44006;52.028;4.696;2023-05-21T05:58:37;8.15;;;5.57;;
58208;SDS011;44006;52.028;4.696;2023-05-21T06:01:02;6.93;;;5.50;;
58208;SDS011;44006;52.028;4.696;2023-05-21T06:03:27;6.97;;;5.40;;
58208;SDS011;44006;52.028;4.696;2023-05-21T06:05:53;8.32;;;5.05;;
58208;SDS011;44006;52.028;4.696;2023-05-21T06:08:18;9.02;;;5.68;;
58208;SDS011;44006;52.028;4.696;2023-05-21T06:10:43;7.37;;;5.80;;
58208;SDS011;44006;52.028;4.696;2023-05-21T06:13:09;9.30;;;5.40;;
58208;SDS011;44006;52.028;4.696;2023-05-21T06:15:35;9.02;;;5.72;;
58208;SDS011;44006;52.028;4.696;2023-05-21T06:18:00;8.93;;;5.88;;
58208;SDS011;44006;52.028;4.696;2023-05-21T06:20:25;6.53;;;5.30;;
58208;SDS011;44006;52.028;4.696;2023-05-21T06:22:51;9.02;;;6.00;;
58208;SDS011;44006;52.028;4.696;2023-05-21T06:25:16;7.80;;;5.83;;
58208;SDS011;44006;52.028;4.696;2023-05-21T06:27:42;8.93;;;6.15;;
58208;SDS011;44006;52.028;4.696;2023-05-21T06:30:07;9.30;;;5.60;;
58208;SDS011;44006;52.028;4.696;2023-05-21T06:32:32;8.00;;;5.80;;
58208;SDS011;44006;52.028;4.696;2023-05-21T06:34:58;11.70;;;6.43;;
58208;SDS011;44006;52.028;4.696;2023-05-21T06:37:23;12.73;;;6.90;;
58208;SDS011;44006;52.028;4.696;2023-05-21T06:39:48;8.23;;;6.05;;
58208;SDS011;44006;52.028;4.696;2023-05-21T06:42:14;10.13;;;6.25;;
58208;SDS011;44006;52.028;4.696;2023-05-21T06:44:39;9.15;;;5.95;;
58208;SDS011;44006;52.028;4.696;2023-05-21T06:47:04;10.55;;;6.25;;
58208;SDS011;44006;52.028;4.696;2023-05-21T06:49:30;9.93;;;6.13;;
58208;SDS011;44006;52.028;4.696;2023-05-21T06:51:55;8.95;;;6.32;;
58208;SDS011;44006;52.028;4.696;2023-05-21T06:54:21;8.37;;;6.30;;
58208;SDS011;44006;52.028;4.696;2023-05-21T06:56:46;8.00;;;6.17;;
58208;SDS011;44006;52.028;4.696;2023-05-21T06:59:11;11.68;;;5.93;;
58208;SDS011;44006;52.028;4.696;2023-05-21T07:01:36;13.50;;;6.37;;
58208;SDS011;44006;52.028;4.696;2023-05-21T07:04:02;8.35;;;6.30;;
58208;SDS011;44006;52.028;4.696;2023-05-21T07:06:27;10.68;;;6.43;;
58208;SDS011;44006;52.028;4.696;2023-05-21T07:08:53;9.90;;;6.40;;
58208;SDS011;44006;52.028;4.696;2023-05-21T07:11:18;7.22;;;5.57;;
58208;SDS011;44006;52.028;4.696;2023-05-21T07:13:44;8.50;;;6.72;;
58208;SDS011;44006;52.028;4.696;2023-05-21T07:16:09;9.55;;;6.53;;
58208;SDS011;44006;52.028;4.696;2023-05-21T07:18:34;9.27;;;6.53;;
58208;SDS011;44006;52.028;4.696;2023-05-21T07:20:59;10.27;;;6.75;;
58208;SDS011;44006;52.028;4.696;2023-05-21T07:23:25;10.60;;;6.65;;
58208;SDS011;44006;52.028;4.696;2023-05-21T07:25:50;10.50;;;7.15;;
58208;SDS011;44006;52.028;4.696;2023-05-21T07:28:15;10.10;;;7.03;;
58208;SDS011;44006;52.028;4.696;2023-05-21T07:30:40;9.55;;;6.93;;
58208;SDS011;44006;52.028;4.696;2023-05-21T07:33:05;8.70;;;6.33;;
58208;SDS011;44006;52.028;4.696;2023-05-21T07:35:32;9.35;;;6.95;;
58208;SDS011;44006;52.028;4.696;2023-05-21T07:37:57;11.07;;;7.05;;
58208;SDS011;44006;52.028;4.696;2023-05-21T07:40:22;14.30;;;6.63;;
58208;SDS011;44006;52.028;4.696;2023-05-21T07:42:47;10.30;;;7.10;;
58208;SDS011;44006;52.028;4.696;2023-05-21T07:45:12;14.47;;;7.10;;
58208;SDS011;44006;52.028;4.696;2023-05-21T07:47:38;9.27;;;6.50;;
58208;SDS011;44006;52.028;4.696;2023-05-21T07:50:03;12.90;;;7.07;;
58208;SDS011;44006;52.028;4.696;2023-05-21T07:52:28;11.02;;;7.25;;
58208;SDS011;44006;52.028;4.696;2023-05-21T07:54:54;10.88;;;7.43;;
58208;SDS011;44006;52.028;4.696;2023-05-21T07:57:19;9.68;;;7.38;;
58208;SDS011;44006;52.028;4.696;2023-05-21T07:59:45;9.88;;;7.25;;
58208;SDS011;44006;52.028;4.696;2023-05-21T08:02:10;10.70;;;7.55;;
58208;SDS011;44006;52.028;4.696;2023-05-21T08:04:35;11.57;;;7.83;;
58208;SDS011;44006;52.028;4.696;2023-05-21T08:07:02;12.13;;;7.13;;
58208;SDS011;44006;52.028;4.696;2023-05-21T08:09:27;10.70;;;7.30;;
58208;SDS011;44006;52.028;4.696;2023-05-21T08:11:52;10.45;;;6.95;;
58208;SDS011;44006;52.028;4.696;2023-05-21T08:14:17;10.67;;;7.47;;
58208;SDS011;44006;52.028;4.696;2023-05-21T08:16:43;12.02;;;7.30;;
58208;SDS011;44006;52.028;4.696;2023-05-21T08:19:09;9.00;;;7.20;;
58208;SDS011;44006;52.028;4.696;2023-05-21T08:21:34;9.65;;;6.43;;
58208;SDS011;44006;52.028;4.696;2023-05-21T08:23:59;10.33;;;7.37;;
58208;SDS011;44006;52.028;4.696;2023-05-21T08:26:25;10.27;;;7.03;;
58208;SDS011;44006;52.028;4.696;2023-05-21T08:28:50;11.25;;;6.93;;
58208;SDS011;44006;52.028;4.696;2023-05-21T08:31:18;9.90;;;7.05;;
58208;SDS011;44006;52.028;4.696;2023-05-21T08:33:50;11.07;;;6.38;;
58208;SDS011;44006;52.028;4.696;2023-05-21T08:36:16;12.00;;;7.10;;
58208;SDS011;44006;52.028;4.696;2023-05-21T08:38:41;14.27;;;7.35;;
58208;SDS011;44006;52.028;4.696;2023-05-21T08:41:06;12.37;;;6.87;;
58208;SDS011;44006;52.028;4.696;2023-05-21T08:43:32;10.13;;;7.30;;
58208;SDS011;44006;52.028;4.696;2023-05-21T08:45:58;8.73;;;6.43;;
58208;SDS011;44006;52.028;4.696;2023-05-21T08:48:24;10.95;;;6.57;;
58208;SDS011;44006;52.028;4.696;2023-05-21T08:50:53;10.98;;;7.10;;
58208;SDS011;44006;52.028;4.696;2023-05-21T08:53:18;13.82;;;6.80;;
58208;SDS011;44006;52.028;4.696;2023-05-21T08:55:44;9.20;;;5.88;;
58208;SDS011;44006;52.028;4.696;2023-05-21T08:58:10;11.63;;;7.03;;
58208;SDS011;44006;52.028;4.696;2023-05-21T09:00:37;10.63;;;6.95;;
58208;SDS011;44006;52.028;4.696;2023-05-21T09:03:03;10.50;;;6.68;;
58208;SDS011;44006;52.028;4.696;2023-05-21T09:05:31;10.63;;;7.03;;
58208;SDS011;44006;52.028;4.696;2023-05-21T09:08:06;12.15;;;6.78;;
58208;SDS011;44006;52.028;4.696;2023-05-21T09:10:35;10.05;;;6.60;;
58208;SDS011;44006;52.028;4.696;2023-05-21T09:13:02;7.75;;;5.82;;
58208;SDS011;44006;52.028;4.696;2023-05-21T09:15:28;11.23;;;6.65;;
58208;SDS011;44006;52.028;4.696;2023-05-21T09:17:53;9.18;;;6.28;;
58208;SDS011;44006;52.028;4.696;2023-05-21T09:20:23;9.32;;;6.05;;
58208;SDS011;44006;52.028;4.696;2023-05-21T09:22:49;9.65;;;5.75;;
58208;SDS011;44006;52.028;4.696;2023-05-21T09:25:15;10.68;;;6.68;;
58208;SDS011;44006;52.028;4.696;2023-05-21T09:27:41;8.23;;;6.78;;
58208;SDS011;44006;52.028;4.696;2023-05-21T09:30:11;9.98;;;6.82;;
58208;SDS011;44006;52.028;4.696;2023-05-21T09:32:36;11.65;;;6.07;;
58208;SDS011;44006;52.028;4.696;2023-05-21T09:35:20;9.50;;;5.60;;
58208;SDS011;44006;52.028;4.696;2023-05-21T09:37:49;8.57;;;6.55;;
58208;SDS011;44006;52.028;4.696;2023-05-21T09:40:18;10.43;;;6.05;;
58208;SDS011;44006;52.028;4.696;2023-05-21T09:42:52;10.05;;;6.35;;
58208;SDS011;44006;52.028;4.696;2023-05-21T09:47:44;7.97;;;5.68;;
58208;SDS011;44006;52.028;4.696;2023-05-21T09:50:14;8.43;;;5.93;;
58208;SDS011;44006;52.028;4.696;2023-05-21T09:52:41;7.80;;;5.70;;
58208;SDS011;44006;52.028;4.696;2023-05-21T09:55:09;8.60;;;5.95;;
58208;SDS011;44006;52.028;4.696;2023-05-21T09:57:42;8.63;;;5.68;;
58208;SDS011;44006;52.028;4.696;2023-05-21T10:00:08;9.00;;;5.55;;
58208;SDS011;44006;52.028;4.696;2023-05-21T10:02:34;8.57;;;5.80;;
58208;SDS011;44006;52.028;4.696;2023-05-21T10:05:01;7.60;;;5.45;;
58208;SDS011;44006;52.028;4.696;2023-05-21T10:07:27;7.82;;;5.45;;
58208;SDS011;44006;52.028;4.696;2023-05-21T10:09:53;7.60;;;5.30;;
58208;SDS011;44006;52.028;4.696;2023-05-21T10:12:19;8.27;;;5.28;;
58208;SDS011;44006;52.028;4.696;2023-05-21T10:14:48;8.57;;;5.57;;
58208;SDS011;44006;52.028;4.696;2023-05-21T10:17:15;9.32;;;5.78;;
58208;SDS011;44006;52.028;4.696;2023-05-21T10:19:40;9.65;;;5.95;;
58208;SDS011;44006;52.028;4.696;2023-05-21T10:22:06;8.85;;;5.38;;
58208;SDS011;44006;52.028;4.696;2023-05-21T10:24:32;11.38;;;5.65;;
58208;SDS011;44006;52.028;4.696;2023-05-21T10:26:57;7.72;;;5.63;;
58208;SDS011;44006;52.028;4.696;2023-05-21T10:29:24;8.27;;;5.57;;
58208;SDS011;44006;52.028;4.696;2023-05-21T10:31:50;9.25;;;5.85;;
58208;SDS011;44006;52.028;4.696;2023-05-21T10:34:16;11.60;;;5.70;;
58208;SDS011;44006;52.028;4.696;2023-05-21T10:36:48;9.77;;;5.90;;
58208;SDS011;44006;52.028;4.696;2023-05-21T10:39:13;9.80;;;5.63;;
58208;SDS011;44006;52.028;4.696;2023-05-21T10:42:39;8.38;;;5.75;;
58208;SDS011;44006;52.028;4.696;2023-05-21T11:01:32;18.42;;;7.00;;
58208;SDS011;44006;52.028;4.696;2023-05-21T11:04:01;10.68;;;6.22;;
58208;SDS011;44006;52.028;4.696;2023-05-21T11:06:26;13.82;;;11.18;;
58208;SDS011;44006;52.028;4.696;2023-05-21T11:08:52;15.13;;;11.57;;
58208;SDS011;44006;52.028;4.696;2023-05-21T11:14:01;13.45;;;9.25;;
58208;SDS011;44006;52.028;4.696;2023-05-21T11:16:57;28.67;;;13.90;;
58208;SDS011;44006;52.028;4.696;2023-05-21T11:25:42;11.68;;;6.40;;
58208;SDS011;44006;52.028;4.696;2023-05-21T11:28:31;9.43;;;6.38;;
58208;SDS011;44006;52.028;4.696;2023-05-21T11:34:24;8.63;;;6.05;;
58208;SDS011;44006;52.028;4.696;2023-05-21T11:39:55;8.32;;;6.22;;
58208;SDS011;44006;52.028;4.696;2023-05-21T11:42:52;10.50;;;6.57;;
58208;SDS011;44006;52.028;4.696;2023-05-21T11:45:39;9.98;;;5.88;;
58208;SDS011;44006;52.028;4.696;2023-05-21T11:48:12;7.78;;;6.03;;
58208;SDS011;44006;52.028;4.696;2023-05-21T11:50:50;9.38;;;6.82;;
58208;SDS011;44006;52.028;4.696;2023-05-21T11:53:24;12.02;;;6.40;;
58208;SDS011;44006;52.028;4.696;2023-05-21T11:55:55;8.98;;;6.18;;
58208;SDS011;44006;52.028;4.696;2023-05-21T11:58:56;10.80;;;6.55;;
58208;SDS011;44006;52.028;4.696;2023-05-21T12:01:22;10.13;;;6.65;;
58208;SDS011;44006;52.028;4.696;2023-05-21T12:03:50;12.18;;;7.20;;
58208;SDS011;44006;52.028;4.696;2023-05-21T12:06:35;10.25;;;6.70;;
58208;SDS011;44006;52.028;4.696;2023-05-21T12:09:13;13.00;;;6.30;;
58208;SDS011;44006;52.028;4.696;2023-05-21T12:11:51;9.48;;;7.07;;
58208;SDS011;44006;52.028;4.696;2023-05-21T12:14:38;9.88;;;7.00;;
58208;SDS011;44006;52.028;4.696;2023-05-21T12:17:31;10.27;;;6.80;;
58208;SDS011;44006;52.028;4.696;2023-05-21T12:29:05;10.07;;;7.22;;
58208;SDS011;44006;52.028;4.696;2023-05-21T12:31:57;9.25;;;7.30;;
58208;SDS011;44006;52.028;4.696;2023-05-21T12:34:48;10.95;;;7.13;;
58208;SDS011;44006;52.028;4.696;2023-05-21T12:37:35;11.52;;;7.32;;
58208;SDS011;44006;52.028;4.696;2023-05-21T12:40:39;9.27;;;7.35;;
58208;SDS011;44006;52.028;4.696;2023-05-21T12:43:14;11.93;;;7.38;;
58208;SDS011;44006;52.028;4.696;2023-05-21T12:45:39;11.82;;;7.38;;
58208;SDS011;44006;52.028;4.696;2023-05-21T12:48:09;11.98;;;7.35;;
58208;SDS011;44006;52.028;4.696;2023-05-21T12:50:54;11.03;;;7.67;;
58208;SDS011;44006;52.028;4.696;2023-05-21T12:53:19;9.48;;;7.25;;
58208;SDS011;44006;52.028;4.696;2023-05-21T13:02:17;11.20;;;7.57;;
58208;SDS011;44006;52.028;4.696;2023-05-21T13:05:18;11.30;;;7.93;;
58208;SDS011;44006;52.028;4.696;2023-05-21T13:08:12;12.00;;;7.60;;
58208;SDS011;44006;52.028;4.696;2023-05-21T13:10:43;11.10;;;7.47;;
58208;SDS011;44006;52.028;4.696;2023-05-21T13:19:04;11.43;;;7.03;;
58208;SDS011;44006;52.028;4.696;2023-05-21T13:27:27;9.27;;;6.88;;
58208;SDS011;44006;52.028;4.696;2023-05-21T13:29:54;11.10;;;7.05;;
58208;SDS011;44006;52.028;4.696;2023-05-21T13:32:40;15.65;;;8.13;;
58208;SDS011;44006;52.028;4.696;2023-05-21T13:39:02;11.18;;;7.07;;
58208;SDS011;44006;52.028;4.696;2023-05-21T13:41:05;9.95;;;6.57;;
58208;SDS011;44006;52.028;4.696;2023-05-21T13:44:06;10.77;;;7.38;;
58208;SDS011;44006;52.028;4.696;2023-05-21T13:46:32;11.43;;;7.10;;
58208;SDS011;44006;52.028;4.696;2023-05-21T13:49:15;12.45;;;7.50;;
58208;SDS011;44006;52.028;4.696;2023-05-21T13:51:46;15.02;;;7.43;;
58208;SDS011;44006;52.028;4.696;2023-05-21T13:54:26;11.48;;;7.63;;
58208;SDS011;44006;52.028;4.696;2023-05-21T13:56:58;12.55;;;7.22;;
58208;SDS011;44006;52.028;4.696;2023-05-21T13:59:26;9.75;;;7.22;;
58208;SDS011;44006;52.028;4.696;2023-05-21T14:01:52;10.35;;;7.68;;
58208;SDS011;44006;52.028;4.696;2023-05-21T14:04:17;11.30;;;7.63;;
58208;SDS011;44006;52.028;4.696;2023-05-21T14:06:52;12.68;;;8.00;;
58208;SDS011;44006;52.028;4.696;2023-05-21T14:11:52;11.07;;;7.68;;
58208;SDS011;44006;52.028;4.696;2023-05-21T14:14:29;13.43;;;8.20;;
58208;SDS011;44006;52.028;4.696;2023-05-21T14:20:01;14.30;;;8.60;;
58208;SDS011;44006;52.028;4.696;2023-05-21T14:22:52;12.02;;;8.07;;
58208;SDS011;44006;52.028;4.696;2023-05-21T14:37:23;10.57;;;7.50;;
58208;SDS011;44006;52.028;4.696;2023-05-21T14:40:26;10.15;;;7.43;;
58208;SDS011;44006;52.028;4.696;2023-05-21T14:46:24;10.00;;;7.00;;
58208;SDS011;44006;52.028;4.696;2023-05-21T14:55:01;11.13;;;7.20;;
58208;SDS011;44006;52.028;4.696;2023-05-21T14:57:46;12.40;;;6.95;;
58208;SDS011;44006;52.028;4.696;2023-05-21T15:03:54;11.25;;;7.00;;
58208;SDS011;44006;52.028;4.696;2023-05-21T15:06:33;10.43;;;7.07;;
58208;SDS011;44006;52.028;4.696;2023-05-21T15:08:58;16.33;;;7.60;;
58208;SDS011;44006;52.028;4.696;2023-05-21T15:11:30;12.35;;;7.82;;
58208;SDS011;44006;52.028;4.696;2023-05-21T15:14:11;9.35;;;7.47;;
58208;SDS011;44006;52.028;4.696;2023-05-21T15:17:13;11.63;;;8.02;;
58208;SDS011;44006;52.028;4.696;2023-05-21T15:19:44;11.25;;;7.30;;
58208;SDS011;44006;52.028;4.696;2023-05-21T15:22:18;11.13;;;7.70;;
58208;SDS011;44006;52.028;4.696;2023-05-21T15:24:49;10.88;;;7.32;;
58208;SDS011;44006;52.028;4.696;2023-05-21T15:30:08;16.83;;;7.80;;
58208;SDS011;44006;52.028;4.696;2023-05-21T15:32:39;13.68;;;8.25;;
58208;SDS011;44006;52.028;4.696;2023-05-21T15:35:07;12.05;;;7.50;;
58208;SDS011;44006;52.028;4.696;2023-05-21T15:37:45;10.75;;;7.03;;
58208;SDS011;44006;52.028;4.696;2023-05-21T15:40:16;12.23;;;7.00;;
58208;SDS011;44006;52.028;4.696;2023-05-21T15:48:57;11.48;;;7.22;;
58208;SDS011;44006;52.028;4.696;2023-05-21T15:51:34;9.95;;;7.00;;
58208;SDS011;44006;52.028;4.696;2023-05-21T16:00:17;9.43;;;7.18;;
58208;SDS011;44006;52.028;4.696;2023-05-21T16:08:07;9.57;;;7.35;;
58208;SDS011;44006;52.028;4.696;2023-05-21T16:13:59;10.77;;;7.60;;
58208;SDS011;44006;52.028;4.696;2023-05-21T16:16:29;11.60;;;7.20;;
58208;SDS011;44006;52.028;4.696;2023-05-21T16:21:49;11.40;;;7.95;;
58208;SDS011;44006;52.028;4.696;2023-05-21T16:24:14;11.90;;;7.30;;
58208;SDS011;44006;52.028;4.696;2023-05-21T16:26:39;12.57;;;7.90;;
58208;SDS011;44006;52.028;4.696;2023-05-21T16:29:05;15.75;;;7.63;;
58208;SDS011;44006;52.028;4.696;2023-05-21T16:31:33;11.68;;;7.72;;
58208;SDS011;44006;52.028;4.696;2023-05-21T16:33:58;18.23;;;8.05;;
58208;SDS011;44006;52.028;4.696;2023-05-21T16:36:27;18.15;;;7.97;;
58208;SDS011;44006;52.028;4.696;2023-05-21T16:38:55;15.43;;;8.00;;
58208;SDS011;44006;52.028;4.696;2023-05-21T16:41:20;11.88;;;6.93;;
58208;SDS011;44006;52.028;4.696;2023-05-21T16:43:59;12.27;;;7.53;;
58208;SDS011;44006;52.028;4.696;2023-05-21T16:46:24;12.85;;;6.80;;
58208;SDS011;44006;52.028;4.696;2023-05-21T16:48:50;14.68;;;7.90;;
58208;SDS011;44006;52.028;4.696;2023-05-21T16:51:16;11.98;;;7.10;;
58208;SDS011;44006;52.028;4.696;2023-05-21T16:53:41;11.05;;;7.28;;
58208;SDS011;44006;52.028;4.696;2023-05-21T16:56:06;10.03;;;7.53;;